Time;durP1;ratioP1;P1;durP2;ratioP2;P2;SDS_P1;SDS_P2;PMS_P1;PMS_P2;Temp;Humidity;BMP_temperature;BMP_pressure;BME280_temperature;BME280_humidity;BME280_pressure;Samples;Min_cycle;Max_cycle;Signal;HPM_P1;HPM_P2
2021/09/11 00:01:45;;;;;;;13.48;12.07;;;;;;;22.82;100.00;96455.09;5056396;28;20064;-56
2021/09/11 00:04:14;;;;;;;13.77;12.05;;;;;;;22.87;100.00;96460.59;5054772;28;20068;-56
2021/09/11 00:06:42;;;;;;;14.30;11.65;;;;;;;22.30;100.00;96459.03;5056255;28;20064;-56
2021/09/11 00:09:11;;;;;;;14.80;12.50;;;;;;;23.16;100.00;96453.72;5048722;28;20476;-56
2021/09/11 00:11:59;;;;;;;13.35;11.95;;;;;;;22.50;100.00;96451.66;5053113;28;20133;-55
2021/09/11 00:14:27;;;;;;;13.35;11.95;;;;;;;22.34;100.00;96449.53;5049415;28;20043;-58
2021/09/11 00:16:56;;;;;;;13.98;12.02;;;;;;;23.19;100.00;96453.28;5050456;28;20068;-53
2021/09/11 00:19:24;;;;;;;16.52;13.02;;;;;;;23.23;100.00;96450.97;5058108;28;20468;-55
2021/09/11 00:21:53;;;;;;;16.90;12.85;;;;;;;23.15;100.00;96451.25;5079168;28;20072;-53
2021/09/11 00:24:21;;;;;;;14.70;12.95;;;;;;;22.97;100.00;96454.75;5077506;28;20066;-56
2021/09/11 00:26:50;;;;;;;14.82;12.82;;;;;;;22.50;100.00;96457.88;5072911;28;20639;-53
2021/09/11 00:29:20;;;;;;;15.40;13.32;;;;;;;22.37;100.00;96463.34;5078321;28;20071;-53
2021/09/11 00:31:48;;;;;;;16.33;13.85;;;;;;;22.09;100.00;96469.06;5072814;28;20551;-55
2021/09/11 00:34:17;;;;;;;16.08;13.02;;;;;;;22.07;100.00;96460.44;5078326;28;20514;-56
2021/09/11 00:36:46;;;;;;;17.05;14.18;;;;;;;22.28;100.00;96468.16;5077289;28;20538;-55
2021/09/11 00:39:15;;;;;;;18.55;13.70;;;;;;;22.29;100.00;96463.59;5065080;28;20446;-55
2021/09/11 00:41:43;;;;;;;16.15;13.15;;;;;;;22.13;100.00;96469.50;5071155;28;20079;-56
2021/09/11 00:44:12;;;;;;;15.55;12.45;;;;;;;22.03;100.00;96460.03;5072219;28;20067;-55
2021/09/11 00:46:41;;;;;;;14.93;12.98;;;;;;;22.19;100.00;96472.13;5058442;28;20079;-56
2021/09/11 00:49:10;;;;;;;15.27;13.23;;;;;;;22.27;100.00;96471.06;5065393;28;20092;-54
2021/09/11 00:51:39;;;;;;;13.98;12.43;;;;;;;21.83;100.00;96470.06;5071356;28;20087;-56
2021/09/11 00:54:07;;;;;;;15.45;12.88;;;;;;;22.18;100.00;96459.75;5084774;28;20479;-57
2021/09/11 00:56:36;;;;;;;18.08;13.50;;;;;;;21.96;100.00;96469.19;5071731;28;20063;-50
2021/09/11 00:59:05;;;;;;;16.15;12.85;;;;;;;21.98;100.00;96467.91;5073652;28;20068;-52
2021/09/11 01:01:33;;;;;;;16.58;13.32;;;;;;;21.79;100.00;96466.19;5073977;28;20612;-57
2021/09/11 01:04:03;;;;;;;15.95;12.98;;;;;;;21.65;100.00;96473.47;5072952;28;20087;-54
2021/09/11 01:06:32;;;;;;;14.80;12.52;;;;;;;21.57;100.00;96471.03;5072006;28;20057;-55
2021/09/11 01:09:00;;;;;;;15.60;13.40;;;;;;;21.23;100.00;96469.47;5077578;28;20083;-56
2021/09/11 01:11:29;;;;;;;16.98;13.45;;;;;;;21.19;100.00;96476.28;5066441;28;20072;-55
2021/09/11 01:13:58;;;;;;;17.55;13.95;;;;;;;21.22;100.00;96465.16;5051058;28;20637;-56
2021/09/11 01:16:28;;;;;;;18.80;14.23;;;;;;;21.10;100.00;96478.41;5053084;28;20083;-52
2021/09/11 01:18:56;;;;;;;19.60;14.05;;;;;;;21.26;100.00;96471.72;5066293;28;20072;-50
2021/09/11 01:21:26;;;;;;;18.25;15.95;;;;;;;21.00;100.00;96473.47;5050575;28;20550;-53
2021/09/11 01:23:56;;;;;;;18.73;15.80;;;;;;;21.26;100.00;96479.78;5047560;28;20072;-52
2021/09/11 01:26:25;;;;;;;20.25;15.63;;;;;;;21.32;100.00;96473.56;5053912;28;20454;-56
2021/09/11 01:28:54;;;;;;;20.00;16.05;;;;;;;21.18;100.00;96480.84;5053952;28;20071;-52
2021/09/11 01:31:22;;;;;;;22.60;16.58;;;;;;;21.22;100.00;96482.06;5058807;28;20084;-54
2021/09/11 01:33:51;;;;;;;20.00;16.95;;;;;;;21.43;100.00;96474.81;5078876;28;20080;-55
2021/09/11 01:36:19;;;;;;;22.38;17.50;;;;;;;21.15;100.00;96493.84;5077666;28;20068;-53
2021/09/11 01:38:48;;;;;;;21.58;17.90;;;;;;;21.31;100.00;96491.53;5078278;28;20084;-53
2021/09/11 01:41:17;;;;;;;27.45;19.42;;;;;;;21.23;100.00;96486.41;5075114;28;20047;-53
2021/09/11 01:43:46;;;;;;;21.58;17.75;;;;;;;20.95;100.00;96497.38;5075958;28;20078;-56
2021/09/11 01:46:14;;;;;;;23.33;19.00;;;;;;;20.99;100.00;96495.97;5081049;28;20082;-55
2021/09/11 01:48:43;;;;;;;25.05;18.98;;;;;;;20.80;100.00;96496.81;5072222;28;20071;-50
2021/09/11 01:51:12;;;;;;;24.27;20.15;;;;;;;20.97;100.00;96494.50;5079589;28;20064;-56
2021/09/11 01:53:40;;;;;;;23.35;19.38;;;;;;;20.96;100.00;96499.06;5077498;28;20067;-54
2021/09/11 01:56:09;;;;;;;26.63;20.30;;;;;;;21.41;100.00;96491.13;5075002;28;20094;-54
2021/09/11 01:58:38;;;;;;;24.10;20.48;;;;;;;21.33;100.00;96500.22;5073189;28;20076;-57
2021/09/11 02:01:07;;;;;;;27.98;21.40;;;;;;;21.47;100.00;96495.66;5082444;28;20494;-56
2021/09/11 02:03:35;;;;;;;27.35;21.83;;;;;;;21.51;100.00;96496.03;5079029;28;20070;-50
2021/09/11 02:06:04;;;;;;;27.02;21.98;;;;;;;22.10;100.00;96497.59;5074217;28;20064;-53
2021/09/11 02:08:32;;;;;;;24.60;21.30;;;;;;;21.79;100.00;96499.22;5080039;28;20068;-52
2021/09/11 02:11:01;;;;;;;27.10;21.77;;;;;;;21.94;100.00;96498.09;5076315;28;20068;-53
2021/09/11 02:13:29;;;;;;;27.40;21.92;;;;;;;21.84;100.00;96503.94;5072066;28;20083;-53
2021/09/11 02:16:01;;;;;;;28.73;21.95;;;;;;;21.62;100.00;96503.44;5077374;28;20068;-54
2021/09/11 02:18:30;;;;;;;29.75;22.30;;;;;;;21.97;100.00;96509.22;5074792;28;20067;-54
2021/09/11 02:20:59;;;;;;;28.38;22.17;;;;;;;22.08;100.00;96505.03;5077597;28;20079;-54
2021/09/11 02:23:27;;;;;;;27.05;22.42;;;;;;;22.13;100.00;96505.22;5075676;28;20649;-52
2021/09/11 02:25:56;;;;;;;28.35;22.45;;;;;;;22.34;100.00;96509.47;5079885;28;20068;-54
2021/09/11 02:28:25;;;;;;;27.33;23.27;;;;;;;22.57;100.00;96521.47;5081115;28;20076;-50
2021/09/11 02:30:53;;;;;;;29.05;23.52;;;;;;;22.39;100.00;96516.84;5085618;28;20075;-52
2021/09/11 02:33:23;;;;;;;27.35;22.88;;;;;;;22.87;100.00;96517.09;5075437;28;20091;-52
2021/09/11 02:35:51;;;;;;;26.38;22.13;;;;;;;22.72;100.00;96517.44;5074462;28;20075;-56
2021/09/11 02:38:20;;;;;;;27.58;23.02;;;;;;;22.76;100.00;96523.19;5078766;28;20110;-53
2021/09/11 02:41:06;;;;;;;30.02;23.08;;;;;;;22.82;100.00;96518.81;5088616;28;20113;-55
2021/09/11 02:43:35;;;;;;;27.92;23.33;;;;;;;22.64;100.00;96522.25;5077055;28;20467;-56
2021/09/11 02:46:03;;;;;;;28.10;24.10;;;;;;;22.26;100.00;96518.59;5083229;28;20475;-54
2021/09/11 02:48:33;;;;;;;29.63;24.27;;;;;;;22.40;100.00;96524.72;5080963;28;20071;-51
2021/09/11 02:51:01;;;;;;;28.83;23.52;;;;;;;22.78;100.00;96512.19;5080868;28;20060;-55
2021/09/11 02:53:30;;;;;;;28.10;23.30;;;;;;;22.34;100.00;96527.44;5078552;28;20075;-56
2021/09/11 02:55:58;;;;;;;28.65;24.42;;;;;;;22.55;100.00;96521.72;5080592;28;20182;-50
2021/09/11 02:58:27;;;;;;;29.27;25.00;;;;;;;22.43;100.00;96521.56;5079984;28;20084;-52
2021/09/11 03:00:55;;;;;;;28.92;23.67;;;;;;;22.77;100.00;96527.50;5063622;28;20072;-52
2021/09/11 03:03:24;;;;;;;29.33;23.98;;;;;;;22.21;100.00;96533.72;5076634;28;20072;-54
2021/09/11 03:05:54;;;;;;;31.70;25.20;;;;;;;22.47;100.00;96541.63;5082090;28;20063;-52
2021/09/11 03:08:22;;;;;;;30.38;24.00;;;;;;;22.52;100.00;96531.03;5075578;28;20090;-55
2021/09/11 03:10:50;;;;;;;29.33;24.80;;;;;;;22.31;100.00;96528.69;5079595;28;20551;-56
2021/09/11 03:13:19;;;;;;;28.02;23.27;;;;;;;22.46;100.00;96529.19;5077786;28;20080;-53
2021/09/11 03:15:48;;;;;;;27.00;23.45;;;;;;;22.33;100.00;96526.59;5074055;28;20229;-54
2021/09/11 03:18:16;;;;;;;27.23;23.23;;;;;;;22.37;100.00;96525.16;5075790;28;20064;-51
2021/09/11 03:20:46;;;;;;;28.27;23.42;;;;;;;22.27;100.00;96520.25;5073344;28;20064;-55
2021/09/11 03:23:17;;;;;;;28.77;23.20;;;;;;;22.12;100.00;96518.84;5039882;28;1126545;-53
2021/09/11 03:25:45;;;;;;;28.08;22.85;;;;;;;22.26;100.00;96513.22;5077022;28;20090;-53
2021/09/11 03:28:28;;;;;;;28.10;22.15;;;;;;;22.07;100.00;96522.19;5074549;28;20119;-54
2021/09/11 03:30:57;;;;;;;26.92;22.48;;;;;;;22.24;100.00;96515.31;5082171;28;20083;-54
2021/09/11 03:33:25;;;;;;;25.95;22.27;;;;;;;22.45;100.00;96514.13;5082814;28;20072;-58
2021/09/11 03:35:54;;;;;;;25.77;21.95;;;;;;;22.23;100.00;96516.34;5074804;28;20064;-54
2021/09/11 03:38:23;;;;;;;26.13;21.80;;;;;;;22.55;100.00;96512.81;5074211;28;20067;-53
2021/09/11 03:40:52;;;;;;;25.90;21.80;;;;;;;22.66;100.00;96520.16;5077147;28;20068;-52
2021/09/11 03:43:20;;;;;;;27.83;23.08;;;;;;;22.16;100.00;96518.25;5078511;28;20080;-51
2021/09/11 03:45:48;;;;;;;29.88;23.10;;;;;;;22.55;100.00;96518.19;5077243;28;20068;-57
2021/09/11 03:48:17;;;;;;;25.23;21.83;;;;;;;22.13;100.00;96520.53;5075514;28;20056;-49
2021/09/11 03:50:45;;;;;;;27.05;21.73;;;;;;;22.47;100.00;96521.94;5081327;28;20450;-55
2021/09/11 03:53:14;;;;;;;26.60;21.60;;;;;;;22.13;100.00;96515.97;5080525;28;20071;-52
2021/09/11 03:55:43;;;;;;;24.90;21.02;;;;;;;22.52;100.00;96514.06;5073663;28;20071;-50
2021/09/11 03:58:14;;;;;;;22.75;18.88;;;;;;;22.47;100.00;96512.06;5079859;28;20079;-55
2021/09/11 04:00:42;;;;;;;27.13;19.02;;;;;;;22.09;100.00;96516.59;5053241;28;20076;-48
2021/09/11 04:03:11;;;;;;;19.77;17.02;;;;;;;22.09;100.00;96508.53;5056624;28;20068;-56
2021/09/11 04:05:58;;;;;;;19.30;17.10;;;;;;;21.91;100.00;96510.09;5054234;28;20064;-55
2021/09/11 04:08:30;;;;;;;19.20;16.75;;;;;;;21.86;100.00;96515.28;5055028;28;20069;-51
2021/09/11 04:11:00;;;;;;;19.00;15.65;;;;;;;21.75;100.00;96513.28;5058237;28;20067;-52
2021/09/11 04:13:28;;;;;;;18.45;15.90;;;;;;;21.91;100.00;96520.00;5073003;28;20080;-56
2021/09/11 04:15:57;;;;;;;17.20;15.38;;;;;;;22.14;100.00;96519.47;5075927;28;20084;-52
2021/09/11 04:18:25;;;;;;;17.05;15.25;;;;;;;21.98;100.00;96510.88;5080399;28;20121;-55
2021/09/11 04:20:53;;;;;;;20.63;15.10;;;;;;;22.00;100.00;96527.59;5076211;28;20059;-54
2021/09/11 04:23:22;;;;;;;17.33;14.88;;;;;;;21.59;100.00;96519.94;5081911;28;20060;-56
2021/09/11 04:25:50;;;;;;;17.80;15.00;;;;;;;21.91;100.00;96517.31;5074691;28;20067;-53
2021/09/11 04:28:20;;;;;;;17.65;14.55;;;;;;;21.94;100.00;96523.09;5077225;28;20102;-57
2021/09/11 04:30:48;;;;;;;19.83;15.18;;;;;;;21.88;100.00;96518.56;5072116;28;20569;-52
2021/09/11 04:33:17;;;;;;;19.17;15.00;;;;;;;21.90;100.00;96519.19;5072920;28;20079;-54
2021/09/11 04:35:45;;;;;;;17.90;14.98;;;;;;;21.95;100.00;96518.53;5078692;28;20479;-52
2021/09/11 04:38:13;;;;;;;18.70;15.45;;;;;;;21.91;100.00;96523.50;5076583;28;20076;-50
2021/09/11 04:40:42;;;;;;;19.05;15.48;;;;;;;21.51;100.00;96538.97;5077223;28;20068;-52
2021/09/11 04:43:10;;;;;;;18.40;14.65;;;;;;;21.86;100.00;96530.59;5081176;28;20660;-53
2021/09/11 04:45:40;;;;;;;18.23;14.60;;;;;;;22.16;100.00;96525.47;5074242;28;20086;-54
2021/09/11 04:48:08;;;;;;;19.17;15.20;;;;;;;21.99;100.00;96542.09;5073324;28;20063;-49
2021/09/11 04:50:37;;;;;;;17.73;14.43;;;;;;;22.39;100.00;96535.66;5075805;28;20478;-50
2021/09/11 04:53:05;;;;;;;18.45;14.57;;;;;;;22.22;100.00;96538.88;5079860;28;20056;-55
2021/09/11 04:55:33;;;;;;;15.85;13.93;;;;;;;22.20;100.00;96543.66;5074341;28;20529;-53
2021/09/11 04:58:02;;;;;;;15.48;13.60;;;;;;;22.05;100.00;96546.56;5076194;28;20549;-55
2021/09/11 05:00:30;;;;;;;17.40;14.45;;;;;;;21.44;100.00;96556.94;5082083;28;20091;-54
2021/09/11 05:03:00;;;;;;;16.95;13.55;;;;;;;21.47;100.00;96560.06;5073724;28;20067;-56
2021/09/11 05:05:29;;;;;;;15.27;13.68;;;;;;;21.69;100.00;96567.81;5073709;28;20064;-53
2021/09/11 05:07:58;;;;;;;16.63;14.70;;;;;;;21.87;100.00;96564.44;5066382;28;20384;-56
2021/09/11 05:10:27;;;;;;;19.65;15.95;;;;;;;22.13;100.00;96566.19;5078934;28;20083;-50
2021/09/11 05:12:55;;;;;;;19.67;16.73;;;;;;;22.02;100.00;96567.66;5072155;28;20545;-54
2021/09/11 05:15:25;;;;;;;19.27;16.70;;;;;;;21.78;100.00;96582.63;5070545;28;20072;-52
2021/09/11 05:17:53;;;;;;;17.85;15.88;;;;;;;21.47;100.00;96580.66;5076284;28;20468;-54
2021/09/11 05:20:23;;;;;;;17.05;14.40;;;;;;;21.48;100.00;96575.09;5070733;28;20064;-56
2021/09/11 05:22:52;;;;;;;15.32;13.73;;;;;;;21.36;100.00;96573.28;5070341;28;20064;-52
2021/09/11 05:25:20;;;;;;;15.23;13.63;;;;;;;21.29;100.00;96579.44;5079083;28;20087;-55
2021/09/11 05:27:48;;;;;;;16.70;14.23;;;;;;;21.78;100.00;96588.00;5076573;28;21384;-52
2021/09/11 05:30:18;;;;;;;15.77;14.13;;;;;;;21.18;100.00;96580.06;5064112;28;20080;-52
2021/09/11 05:32:47;;;;;;;17.13;13.90;;;;;;;20.90;100.00;96582.16;5079898;28;20067;-53
2021/09/11 05:35:15;;;;;;;16.17;13.23;;;;;;;21.05;100.00;96588.13;5072847;28;20072;-52
2021/09/11 05:37:45;;;;;;;14.90;12.80;;;;;;;21.32;100.00;96581.69;5081467;28;20114;-53
2021/09/11 05:40:14;;;;;;;14.10;12.60;;;;;;;21.34;100.00;96592.28;5074297;28;20513;-56
2021/09/11 05:42:42;;;;;;;13.52;12.13;;;;;;;21.27;100.00;96591.44;5071338;28;20071;-51
2021/09/11 05:45:11;;;;;;;14.63;12.07;;;;;;;21.14;100.00;96586.91;5073908;28;20080;-50
2021/09/11 05:47:40;;;;;;;13.60;11.77;;;;;;;21.60;100.00;96585.19;5071147;28;20076;-55
2021/09/11 05:50:10;;;;;;;13.63;11.35;;;;;;;22.03;100.00;96577.38;5076666;28;20044;-54
2021/09/11 05:52:38;;;;;;;;;;;;;;;22.33;100.00;96580.34;5074560;28;20084;-54
2021/09/11 05:55:09;;;;;;;13.32;11.48;;;;;;;22.52;100.00;96582.09;5076429;28;22395;-51
2021/09/11 05:57:37;;;;;;;;;;;;;;;22.79;100.00;96581.09;5085446;28;20056;-55
2021/09/11 06:00:06;;;;;;;12.27;10.85;;;;;;;22.97;100.00;96584.69;5076785;28;19963;-56
2021/09/11 06:02:34;;;;;;;15.02;11.05;;;;;;;22.54;100.00;96584.56;5059992;28;20056;-53
2021/09/11 06:05:04;;;;;;;12.95;11.55;;;;;;;22.50;100.00;96577.97;5056977;28;20768;-53
2021/09/11 06:07:32;;;;;;;13.23;11.80;;;;;;;22.55;100.00;96575.47;5050961;28;20081;-55
2021/09/11 06:10:01;;;;;;;12.63;11.10;;;;;;;22.59;100.00;96565.91;5072956;28;20067;-55
2021/09/11 06:12:31;;;;;;;12.93;10.40;;;;;;;22.35;100.00;96567.53;5072307;28;20068;-54
2021/09/11 06:14:59;;;;;;;11.80;10.45;;;;;;;22.08;100.00;96558.75;5082232;28;20072;-54
2021/09/11 06:17:28;;;;;;;12.68;10.45;;;;;;;21.87;100.00;96559.88;5075236;28;20052;-56
2021/09/11 06:19:56;;;;;;;12.10;9.93;;;;;;;21.16;100.00;96558.00;5078091;28;20064;-54
2021/09/11 06:22:24;;;;;;;11.50;10.30;;;;;;;22.04;100.00;96555.69;5080583;28;20079;-55
2021/09/11 06:24:53;;;;;;;11.52;10.32;;;;;;;22.47;100.00;96554.19;5059110;28;20188;-51
2021/09/11 06:27:21;;;;;;;11.98;10.00;;;;;;;23.23;100.00;96550.53;5055752;28;20065;-57
2021/09/11 06:29:51;;;;;;;12.02;10.23;;;;;;;22.57;100.00;96551.03;5055355;28;20116;-55
2021/09/11 06:32:19;;;;;;;11.48;9.88;;;;;;;23.50;100.00;96544.84;5054682;28;20527;-53
2021/09/11 06:34:48;;;;;;;10.93;9.68;;;;;;;23.84;100.00;96546.94;5051400;28;20072;-53
2021/09/11 06:37:16;;;;;;;10.38;8.88;;;;;;;23.82;100.00;96550.94;5061338;28;20084;-55
2021/09/11 06:39:45;;;;;;;9.90;8.90;;;;;;;23.32;100.00;96562.63;5060640;28;20083;-49
2021/09/11 06:42:15;;;;;;;11.63;8.70;;;;;;;24.17;100.00;96559.19;5056815;28;20508;-53
2021/09/11 06:44:43;;;;;;;10.20;9.10;;;;;;;24.32;100.00;96564.13;5063044;28;20499;-54
2021/09/11 06:47:13;;;;;;;11.48;9.10;;;;;;;24.43;100.00;96563.38;5052251;28;20076;-52
2021/09/11 06:49:41;;;;;;;9.88;8.88;;;;;;;23.79;100.00;96568.34;5055025;28;20451;-54
2021/09/11 06:52:10;;;;;;;10.98;8.70;;;;;;;24.33;100.00;96566.63;5059513;28;20095;-54
2021/09/11 06:54:39;;;;;;;8.90;7.97;;;;;;;24.61;100.00;96565.22;5062142;28;21349;-55
2021/09/11 06:57:07;;;;;;;9.30;8.38;;;;;;;24.96;100.00;96567.97;5052337;28;20060;-52
2021/09/11 06:59:35;;;;;;;8.95;8.10;;;;;;;24.01;100.00;96567.88;5052580;28;20107;-53
2021/09/11 07:02:04;;;;;;;9.73;8.52;;;;;;;24.12;100.00;96564.41;5060512;28;20064;-51
2021/09/11 07:04:34;;;;;;;10.32;8.45;;;;;;;24.11;100.00;96565.47;5054623;28;20084;-54
2021/09/11 07:07:03;;;;;;;9.45;8.45;;;;;;;22.91;100.00;96568.56;5059536;28;20081;-53
2021/09/11 07:09:31;;;;;;;8.75;7.88;;;;;;;23.39;100.00;96560.69;5054442;28;20076;-56
2021/09/11 07:12:00;;;;;;;9.32;8.25;;;;;;;23.58;100.00;96558.84;5059052;28;20457;-53
2021/09/11 07:14:28;;;;;;;11.13;8.05;;;;;;;23.71;100.00;96562.44;5051382;28;20072;-52
2021/09/11 07:16:57;;;;;;;8.75;7.85;;;;;;;23.54;100.00;96559.53;5049492;28;20064;-54
2021/09/11 07:19:28;;;;;;;9.15;8.18;;;;;;;23.42;100.00;96565.63;5060338;28;20508;-55
2021/09/11 07:21:58;;;;;;;8.93;8.02;;;;;;;23.86;100.00;96562.88;5055804;28;20081;-53
2021/09/11 07:24:26;;;;;;;9.43;7.85;;;;;;;23.98;100.00;96560.25;5049817;28;20075;-52
2021/09/11 07:26:54;;;;;;;9.10;7.68;;;;;;;24.58;100.00;96563.78;5067109;28;20526;-53
2021/09/11 07:29:23;;;;;;;10.23;8.10;;;;;;;24.12;100.00;96569.78;5058286;28;20162;-56
2021/09/11 07:31:51;;;;;;;8.55;7.65;;;;;;;23.94;100.00;96562.56;5056156;28;20515;-54
2021/09/11 07:34:19;;;;;;;9.43;8.43;;;;;;;25.18;100.00;96573.63;5066721;28;20788;-54
2021/09/11 07:36:48;;;;;;;8.68;7.78;;;;;;;25.19;100.00;96566.34;5054240;28;20202;-53
2021/09/11 07:39:18;;;;;;;8.52;7.63;;;;;;;24.73;100.00;96571.44;5051433;28;20076;-56
2021/09/11 07:41:46;;;;;;;8.48;7.68;;;;;;;24.12;100.00;96572.50;5060782;28;20106;-49
2021/09/11 07:44:14;;;;;;;8.82;7.55;;;;;;;24.39;100.00;96575.66;5051759;28;20075;-55
2021/09/11 07:46:43;;;;;;;7.72;6.93;;;;;;;25.31;100.00;96578.81;5054460;28;20071;-52
2021/09/11 07:49:11;;;;;;;8.82;7.47;;;;;;;24.59;100.00;96583.50;5087213;28;20086;-54
2021/09/11 07:51:40;;;;;;;7.35;6.65;;;;;;;25.61;100.00;96585.97;5076446;28;20056;-57
2021/09/11 07:54:08;;;;;;;9.38;7.32;;;;;;;25.24;100.00;96590.78;5073531;28;20068;-54
2021/09/11 07:56:38;;;;;;;7.90;7.10;;;;;;;26.02;100.00;96589.56;5072747;28;20470;-52
2021/09/11 07:59:06;;;;;;;8.35;7.03;;;;;;;25.41;100.00;96586.31;5080116;28;20091;-55
2021/09/11 08:01:34;;;;;;;8.23;7.30;;;;;;;25.61;100.00;96585.97;5074145;28;20099;-55
2021/09/11 08:04:04;;;;;;;7.90;7.10;;;;;;;25.38;100.00;96596.78;5076994;28;20103;-52
2021/09/11 08:06:32;;;;;;;7.40;6.70;;;;;;;25.82;100.00;96600.75;5079810;28;20063;-55
2021/09/11 08:09:01;;;;;;;7.78;6.97;;;;;;;25.77;100.00;96597.91;5075245;28;20090;-56
2021/09/11 08:11:29;;;;;;;7.90;6.50;;;;;;;24.58;100.00;96592.63;5069895;28;20067;-51
2021/09/11 08:13:59;;;;;;;7.15;6.43;;;;;;;25.03;100.00;96595.66;5070646;28;20079;-54
2021/09/11 08:16:27;;;;;;;7.82;6.15;;;;;;;25.65;100.00;96594.41;5070459;28;20083;-54
2021/09/11 08:18:56;;;;;;;7.03;6.30;;;;;;;25.48;100.00;96602.41;5072616;28;20098;-56
2021/09/11 08:21:24;;;;;;;7.25;6.55;;;;;;;25.16;100.00;96597.34;5069343;28;20075;-55
2021/09/11 08:23:53;;;;;;;7.45;6.47;;;;;;;26.03;100.00;96604.69;5077540;28;20071;-56
2021/09/11 08:26:21;;;;;;;8.32;7.28;;;;;;;26.26;100.00;96596.53;5074527;28;20063;-54
2021/09/11 08:28:51;;;;;;;8.27;6.97;;;;;;;26.59;100.00;96597.69;5077220;28;20099;-57
2021/09/11 08:31:21;;;;;;;9.48;6.68;;;;;;;27.52;86.37;96597.31;5079460;28;20078;-54
2021/09/11 08:33:49;;;;;;;7.95;6.82;;;;;;;26.64;98.09;96600.50;5068043;28;20320;-56
2021/09/11 08:36:18;;;;;;;7.82;6.60;;;;;;;27.41;86.01;96594.47;5074287;28;20102;-53
2021/09/11 08:38:46;;;;;;;8.65;6.70;;;;;;;25.98;96.47;96605.44;5075336;28;20056;-56
2021/09/11 08:41:15;;;;;;;7.47;6.45;;;;;;;27.45;85.04;96594.78;5072084;28;20063;-57
2021/09/11 08:43:43;;;;;;;7.80;6.53;;;;;;;26.65;96.26;96596.72;5074672;28;20064;-54
2021/09/11 08:46:12;;;;;;;7.05;6.35;;;;;;;27.21;85.45;96597.69;5075889;28;20087;-53
2021/09/11 08:48:42;;;;;;;8.05;6.82;;;;;;;26.84;85.03;96601.91;5079748;28;20068;-53
2021/09/11 08:51:10;;;;;;;7.68;6.55;;;;;;;26.60;92.29;96603.91;5072564;28;20075;-55
2021/09/11 08:53:38;;;;;;;7.72;6.70;;;;;;;27.85;73.59;96600.00;5071881;28;20067;-55
2021/09/11 08:56:07;;;;;;;7.22;6.18;;;;;;;27.62;78.95;96597.47;5074442;28;20082;-54
2021/09/11 08:58:36;;;;;;;7.28;6.57;;;;;;;28.82;70.17;96592.97;5070902;28;20079;-53
2021/09/11 09:01:04;;;;;;;7.50;6.80;;;;;;;29.25;62.89;96593.06;5065542;28;20072;-55
2021/09/11 09:03:36;;;;;;;7.13;6.43;;;;;;;28.54;68.56;96594.06;5052844;28;20440;-54
2021/09/11 09:06:18;;;;;;;9.30;6.38;;;;;;;29.07;66.38;96592.38;5053523;28;20064;-55
2021/09/11 09:08:48;;;;;;;7.03;6.10;;;;;;;28.79;62.67;96589.94;5048945;28;20069;-51
2021/09/11 09:11:18;;;;;;;9.32;7.57;;;;;;;28.04;72.99;96594.25;5049856;28;20057;-55
2021/09/11 09:13:57;;;;;;;6.93;6.10;;;;;;;27.53;75.85;96593.53;5053565;28;20084;-53
2021/09/11 09:16:27;;;;;;;8.25;5.90;;;;;;;28.22;64.70;96590.41;5073289;28;20084;-53
2021/09/11 09:18:56;;;;;;;7.72;6.18;;;;;;;27.75;75.19;96593.59;5080766;28;20094;-56
2021/09/11 09:21:28;;;;;;;6.80;5.97;;;;;;;27.53;68.49;96593.53;5059063;28;20473;-56
2021/09/11 09:23:58;;;;;;;7.03;6.10;;;;;;;27.03;77.72;96597.09;5056681;28;20072;-56
2021/09/11 09:26:27;;;;;;;;;;;;;;;27.64;71.48;96593.47;5057719;28;20063;-56
2021/09/11 09:29:06;;;;;;;7.13;5.47;;;;;;;28.60;63.65;96592.22;5062293;28;19967;-55
2021/09/11 09:31:35;;;;;;;6.35;5.53;;;;;;;27.54;72.33;96595.22;5075436;28;20079;-57
2021/09/11 09:34:04;;;;;;;6.87;5.60;;;;;;;26.99;72.43;96596.75;5076678;28;20076;-55
2021/09/11 09:36:38;;;;;;;6.07;5.47;;;;;;;26.49;73.90;96595.63;5062651;28;20067;-50
2021/09/11 09:39:09;;;;;;;6.35;5.75;;;;;;;26.92;74.36;96594.22;5056708;28;20071;-55
2021/09/11 09:41:49;;;;;;;6.75;6.00;;;;;;;27.86;67.19;96590.78;5054951;28;20084;-54
2021/09/11 09:44:19;;;;;;;7.28;6.03;;;;;;;27.63;68.68;96589.13;5055951;28;20087;-51
2021/09/11 09:46:49;;;;;;;6.93;5.60;;;;;;;26.97;74.64;96597.00;5052734;28;20597;-53
2021/09/11 09:49:19;;;;;;;6.95;5.97;;;;;;;28.27;63.76;96590.47;5060111;28;20079;-54
2021/09/11 09:51:50;;;;;;;8.98;5.88;;;;;;;28.75;56.63;96595.06;5060412;28;21319;-57
2021/09/11 09:54:20;;;;;;;6.78;6.10;;;;;;;27.58;61.05;96585.50;5060631;28;20067;-56
2021/09/11 09:56:48;;;;;;;5.68;5.03;;;;;;;28.07;60.58;96593.75;5057260;28;20523;-52
2021/09/11 09:59:18;;;;;;;8.05;6.10;;;;;;;28.06;57.89;96592.94;5070906;28;20073;-52
2021/09/11 10:01:49;;;;;;;7.05;5.57;;;;;;;28.61;53.93;96586.53;5082853;28;20116;-55
2021/09/11 10:04:20;;;;;;;7.50;5.63;;;;;;;28.56;54.36;96580.22;5081781;28;20067;-50
2021/09/11 10:06:53;;;;;;;6.22;5.63;;;;;;;27.72;60.55;96577.84;5074706;28;21352;-53
2021/09/11 10:09:26;;;;;;;8.40;6.10;;;;;;;27.63;58.69;96580.97;5078211;28;20064;-52
2021/09/11 10:11:55;;;;;;;6.50;5.80;;;;;;;28.65;56.27;96572.44;5081397;28;20067;-52
2021/09/11 10:14:31;;;;;;;6.78;6.07;;;;;;;28.73;56.37;96572.78;5073236;28;20730;-54
2021/09/11 10:17:01;;;;;;;6.95;5.78;;;;;;;29.38;54.95;96568.16;5075465;28;20064;-56
2021/09/11 10:19:31;;;;;;;6.45;5.47;;;;;;;29.11;53.94;96568.25;5088511;28;20551;-54
2021/09/11 10:22:24;;;;;;;7.75;5.47;;;;;;;29.67;52.18;96567.84;5079365;28;20079;-56
2021/09/11 10:25:01;;;;;;;6.95;5.90;;;;;;;27.97;59.45;96571.94;5073917;28;20139;-53
2021/09/11 10:27:35;;;;;;;6.85;5.63;;;;;;;28.08;62.88;96573.69;5055807;28;20086;-56
2021/09/11 10:30:11;;;;;;;6.88;5.90;;;;;;;27.30;71.19;96562.09;5072040;28;20068;-54
2021/09/11 10:32:44;;;;;;;6.80;6.20;;;;;;;28.16;68.78;96557.81;5068519;28;20066;-55
2021/09/11 10:35:17;;;;;;;8.15;6.35;;;;;;;29.03;60.49;96566.84;5062858;28;20065;-56
2021/09/11 10:37:47;;;;;;;7.05;6.35;;;;;;;27.58;67.01;96561.94;5058341;28;20128;-54
2021/09/11 10:40:25;;;;;;;7.70;6.88;;;;;;;27.87;69.79;96559.91;5064362;28;20076;-54
2021/09/11 10:43:18;;;;;;;7.03;6.32;;;;;;;26.86;76.56;96551.06;5055401;28;20688;-55
2021/09/11 10:45:55;;;;;;;7.50;6.47;;;;;;;27.71;76.09;96560.75;5054741;28;20037;-51
2021/09/11 10:48:47;;;;;;;7.60;6.85;;;;;;;27.24;75.92;96557.66;5076587;28;20079;-52
2021/09/11 10:51:33;;;;;;;7.20;6.38;;;;;;;26.71;84.50;96557.06;5073709;28;20079;-56
2021/09/11 10:54:12;;;;;;;6.60;5.97;;;;;;;26.55;83.81;96563.25;5080770;28;20071;-53
2021/09/11 10:56:50;;;;;;;9.38;5.63;;;;;;;27.37;76.00;96550.00;5078004;28;20066;-55
2021/09/11 10:59:28;;;;;;;7.18;5.63;;;;;;;26.96;74.31;96548.53;5075688;28;20076;-52
2021/09/11 11:01:59;;;;;;;6.35;5.22;;;;;;;26.87;71.97;96542.69;5070314;28;20080;-55
2021/09/11 11:04:29;;;;;;;6.25;5.65;;;;;;;27.14;73.20;96544.78;5065050;28;20080;-52
2021/09/11 11:07:00;;;;;;;6.53;5.50;;;;;;;26.62;80.47;96540.41;5052525;28;20081;-52
2021/09/11 11:09:34;;;;;;;7.40;5.70;;;;;;;26.41;78.45;96541.91;5052786;28;20080;-55
2021/09/11 11:12:04;;;;;;;7.07;6.03;;;;;;;28.10;64.72;96526.28;5055956;28;20075;-55
2021/09/11 11:14:33;;;;;;;6.80;5.60;;;;;;;27.97;66.88;96534.00;5055130;28;20064;-54
2021/09/11 11:17:02;;;;;;;6.82;5.82;;;;;;;28.12;68.87;96535.00;5058513;28;20099;-52
2021/09/11 11:19:32;;;;;;;6.85;5.72;;;;;;;27.47;70.18;96537.69;5053831;28;20057;-53
2021/09/11 11:22:02;;;;;;;;;;;;;;;27.69;71.44;96539.31;5066639;28;20079;-53
2021/09/11 11:24:34;;;;;;;6.93;5.97;;;;;;;27.90;67.75;96526.88;5052020;28;19967;-55
2021/09/11 11:27:05;;;;;;;6.20;5.60;;;;;;;27.69;70.41;96533.91;5055005;28;20076;-55
2021/09/11 11:29:33;;;;;;;6.97;6.28;;;;;;;27.43;73.67;96538.19;5052116;28;20071;-54
2021/09/11 11:32:04;;;;;;;6.90;6.20;;;;;;;27.21;74.97;96526.47;5055767;28;20697;-54